createdAt,value
2023-03-14T00:01:25.351Z,1.35
2023-03-14T00:03:58.056Z,1.45
2023-03-14T00:06:32.338Z,0.98
2023-03-14T00:09:04.856Z,1.13
2023-03-14T00:11:37.364Z,0.95
2023-03-14T00:14:09.996Z,0.88
2023-03-14T00:16:42.541Z,0.60
2023-03-14T00:19:15.618Z,0.75
2023-03-14T00:21:48.266Z,0.80
2023-03-14T00:24:20.847Z,0.85
2023-03-14T00:26:53.416Z,0.85
2023-03-14T00:29:25.911Z,0.98
2023-03-14T00:31:58.492Z,0.70
2023-03-14T00:34:34.785Z,0.90
2023-03-14T00:37:07.345Z,0.75
2023-03-14T00:39:39.940Z,0.82
2023-03-14T00:42:12.532Z,0.63
2023-03-14T00:44:45.110Z,0.95
2023-03-14T00:47:17.645Z,0.70
2023-03-14T00:49:50.179Z,0.63
2023-03-14T00:52:22.781Z,1.02
2023-03-14T00:54:55.368Z,0.60
2023-03-14T00:57:28.048Z,0.80
2023-03-14T01:00:00.505Z,0.47
2023-03-14T01:02:33.077Z,0.80
2023-03-14T01:05:06.072Z,0.73
2023-03-14T01:07:38.793Z,1.27
2023-03-14T01:10:11.679Z,0.93
2023-03-14T01:12:44.225Z,0.73
2023-03-14T01:15:16.859Z,0.90
2023-03-14T01:17:49.499Z,0.60
2023-03-14T01:20:22.088Z,0.70
2023-03-14T01:22:54.893Z,0.80
2023-03-14T01:25:27.698Z,0.70
2023-03-14T01:28:01.732Z,0.88
2023-03-14T01:30:34.338Z,0.55
2023-03-14T01:33:07.359Z,0.60
2023-03-14T01:35:39.883Z,0.77
2023-03-14T01:38:12.437Z,0.70
2023-03-14T01:40:45.689Z,0.50
2023-03-14T01:43:21.705Z,0.70
2023-03-14T01:46:06.264Z,0.60
2023-03-14T01:48:45.926Z,0.57
2023-03-14T01:51:41.812Z,0.50
2023-03-14T01:54:34.576Z,1.67
2023-03-14T01:57:32.828Z,0.52
2023-03-14T02:00:14.358Z,0.85
2023-03-14T02:02:52.618Z,0.70
2023-03-14T02:05:31.322Z,0.70
2023-03-14T02:08:10.512Z,1.52
2023-03-14T02:10:49.994Z,1.33
2023-03-14T02:13:23.411Z,1.73
2023-03-14T02:15:56.063Z,0.70
2023-03-14T02:18:28.762Z,0.90
2023-03-14T02:21:25.503Z,1.20
2023-03-14T02:24:09.840Z,0.90
2023-03-14T02:27:12.766Z,1.00
2023-03-14T02:29:53.408Z,0.80
2023-03-14T02:32:30.971Z,0.85
2023-03-14T02:35:14.366Z,0.75
2023-03-14T02:37:49.215Z,0.90
2023-03-14T02:40:22.713Z,0.88
2023-03-14T02:42:55.523Z,1.10
2023-03-14T02:45:57.387Z,1.00
2023-03-14T02:48:37.107Z,1.05
2023-03-14T02:51:10.255Z,1.30
2023-03-14T02:53:43.697Z,0.70
2023-03-14T02:56:16.353Z,0.70
2023-03-14T02:58:48.915Z,0.70
2023-03-14T03:01:21.460Z,0.77
2023-03-14T03:03:54.324Z,1.00
2023-03-14T03:06:27.418Z,0.73
2023-03-14T03:09:00.004Z,0.52
2023-03-14T03:11:32.852Z,0.88
2023-03-14T03:14:05.430Z,1.02
2023-03-14T03:16:38.070Z,0.93
2023-03-14T03:19:10.605Z,1.17
2023-03-14T03:21:43.131Z,0.95
2023-03-14T03:24:15.761Z,0.85
2023-03-14T03:26:48.371Z,0.65
2023-03-14T03:29:20.969Z,1.00
2023-03-14T03:31:54.092Z,1.02
2023-03-14T03:34:28.841Z,0.90
2023-03-14T03:37:01.387Z,0.82
2023-03-14T03:39:33.887Z,1.42
2023-03-14T03:42:06.380Z,1.00
2023-03-14T03:44:39.055Z,1.20
2023-03-14T03:47:11.752Z,0.60
2023-03-14T03:49:44.349Z,0.80
2023-03-14T03:52:17.124Z,0.50
2023-03-14T03:54:49.645Z,1.00
2023-03-14T03:57:22.235Z,0.73
2023-03-14T03:59:54.756Z,0.73
2023-03-14T04:02:27.491Z,0.70
2023-03-14T04:05:00.180Z,0.98
2023-03-14T04:07:34.240Z,0.85
2023-03-14T04:10:07.081Z,0.63
2023-03-14T04:12:39.704Z,1.67
2023-03-14T04:15:12.523Z,0.73
2023-03-14T04:17:45.282Z,0.82
2023-03-14T04:20:17.982Z,0.75
2023-03-14T04:22:50.524Z,0.70
2023-03-14T04:25:23.139Z,0.80
2023-03-14T04:27:55.694Z,0.57
2023-03-14T04:30:28.651Z,0.70
2023-03-14T04:33:01.329Z,1.00
2023-03-14T04:35:34.551Z,0.60
2023-03-14T04:38:07.143Z,0.60
2023-03-14T04:40:44.723Z,0.60
2023-03-14T04:43:17.203Z,0.50
2023-03-14T04:45:49.898Z,0.63
2023-03-14T04:48:23.294Z,0.65
2023-03-14T04:50:56.894Z,0.77
2023-03-14T04:53:31.839Z,0.60
2023-03-14T04:58:38.402Z,0.50
2023-03-14T05:01:11.276Z,0.50
2023-03-14T05:03:43.800Z,0.73
2023-03-14T05:06:16.371Z,0.95
2023-03-14T05:08:48.884Z,0.77
2023-03-14T05:11:21.441Z,0.77
2023-03-14T05:13:54.035Z,0.95
2023-03-14T05:16:26.724Z,0.77
2023-03-14T05:18:59.336Z,0.82
2023-03-14T05:21:31.893Z,0.70
2023-03-14T05:24:04.789Z,0.70
2023-03-14T05:26:37.340Z,1.15
2023-03-14T05:29:09.805Z,1.08
2023-03-14T05:31:42.396Z,1.05
2023-03-14T05:34:14.958Z,0.90
2023-03-14T05:36:47.841Z,1.08
2023-03-14T05:39:20.344Z,0.80
2023-03-14T05:41:54.876Z,1.27
2023-03-14T05:44:27.382Z,1.00
2023-03-14T05:47:00.013Z,1.35
2023-03-14T05:49:32.898Z,1.23
2023-03-14T05:52:05.575Z,1.25
2023-03-14T05:54:38.163Z,0.90
2023-03-14T05:57:10.951Z,1.00
2023-03-14T05:59:43.488Z,1.10
2023-03-14T06:02:16.092Z,1.38
2023-03-14T06:04:48.718Z,1.20
2023-03-14T06:07:21.483Z,1.20
2023-03-14T06:09:54.024Z,1.17
2023-03-14T06:12:26.670Z,1.00
2023-03-14T06:14:59.153Z,1.00
2023-03-14T06:17:31.674Z,1.17
2023-03-14T06:20:04.642Z,1.30
2023-03-14T06:22:37.406Z,1.42
2023-03-14T06:25:10.541Z,1.52
2023-03-14T06:27:43.080Z,1.40
2023-03-14T06:30:15.972Z,1.58
2023-03-14T06:32:48.600Z,2.03
2023-03-14T06:35:21.137Z,1.30
2023-03-14T06:37:53.709Z,1.83
2023-03-14T06:40:26.358Z,1.10
2023-03-14T06:42:58.881Z,1.73
2023-03-14T06:45:31.467Z,1.52
2023-03-14T06:48:05.380Z,1.60
2023-03-14T06:50:37.926Z,1.63
2023-03-14T06:53:10.566Z,2.20
2023-03-14T06:55:44.244Z,1.63
2023-03-14T06:58:17.342Z,1.50
2023-03-14T07:00:49.832Z,2.10
2023-03-14T07:03:22.418Z,1.33
2023-03-14T07:05:55.187Z,1.27
2023-03-14T07:08:27.711Z,1.50
2023-03-14T07:11:00.291Z,1.75
2023-03-14T07:13:32.878Z,1.35
2023-03-14T07:16:06.791Z,2.13
2023-03-14T07:18:39.474Z,2.03
2023-03-14T07:21:12.167Z,1.50
2023-03-14T07:23:44.678Z,1.33
2023-03-14T07:26:17.425Z,1.52
2023-03-14T07:28:50.021Z,1.50
2023-03-14T07:31:22.681Z,1.50
2023-03-14T07:33:55.221Z,0.80
2023-03-14T07:36:27.764Z,0.70
2023-03-14T07:39:00.220Z,0.70
2023-03-14T07:41:33.652Z,0.70
2023-03-14T07:44:06.207Z,0.47
2023-03-14T07:46:38.894Z,0.40
2023-03-14T07:49:11.544Z,0.40
2023-03-14T07:51:45.092Z,0.70
2023-03-14T07:54:19.650Z,0.50
2023-03-14T07:56:53.409Z,0.90
2023-03-14T07:59:25.932Z,0.60
2023-03-14T08:01:58.612Z,1.17
2023-03-14T08:04:31.138Z,1.00
2023-03-14T08:07:03.688Z,1.30
2023-03-14T08:09:36.278Z,1.30
2023-03-14T08:12:09.215Z,1.30
2023-03-14T08:14:41.675Z,1.30
2023-03-14T08:17:14.162Z,1.05
2023-03-14T08:19:46.630Z,1.17
2023-03-14T08:22:20.223Z,0.90
2023-03-14T08:24:52.963Z,0.82
2023-03-14T08:27:25.611Z,0.40
2023-03-14T08:29:58.576Z,0.50
2023-03-14T08:32:31.854Z,0.73
2023-03-14T08:35:06.501Z,1.23
2023-03-14T08:37:39.061Z,0.60
2023-03-14T08:40:12.764Z,0.60
2023-03-14T08:42:46.428Z,1.00
2023-03-14T08:45:19.102Z,1.13
2023-03-14T08:47:51.671Z,1.00
2023-03-14T08:50:25.165Z,1.35
2023-03-14T08:53:00.829Z,0.98
2023-03-14T08:55:33.701Z,0.80
2023-03-14T08:58:06.241Z,1.50
2023-03-14T09:00:38.925Z,1.45
2023-03-14T09:03:11.540Z,1.25
2023-03-14T09:05:44.188Z,1.15
2023-03-14T09:08:16.754Z,1.02
2023-03-14T09:10:49.330Z,1.00
2023-03-14T09:13:21.868Z,1.00
2023-03-14T09:15:58.459Z,1.10
2023-03-14T09:18:31.194Z,1.00
2023-03-14T09:21:04.134Z,1.10
2023-03-14T09:23:36.700Z,1.02
2023-03-14T09:26:09.281Z,1.15
2023-03-14T09:28:41.755Z,0.93
2023-03-14T09:31:15.070Z,0.80
2023-03-14T09:33:47.655Z,0.88
2023-03-14T09:36:20.180Z,0.70
2023-03-14T09:38:52.757Z,0.68
2023-03-14T09:41:25.210Z,0.82
2023-03-14T09:44:07.346Z,0.50
2023-03-14T09:46:43.803Z,0.43
2023-03-14T09:49:28.406Z,0.55
2023-03-14T09:52:12.580Z,0.50
2023-03-14T09:55:08.478Z,0.30
2023-03-14T09:57:43.952Z,0.15
2023-03-14T10:00:24.252Z,0.60
2023-03-14T10:03:25.715Z,0.50
2023-03-14T10:05:58.826Z,0.85
2023-03-14T10:08:31.368Z,0.30
2023-03-14T10:11:04.110Z,0.20
2023-03-14T10:14:07.950Z,0.47
2023-03-14T10:16:47.067Z,0.65
2023-03-14T10:19:19.778Z,0.40
2023-03-14T10:21:55.155Z,0.50
2023-03-14T10:24:32.951Z,0.60
2023-03-14T10:27:20.069Z,0.63
2023-03-14T10:30:09.036Z,0.40
2023-03-14T10:32:47.273Z,0.60
2023-03-14T10:35:23.893Z,0.82
2023-03-14T10:38:05.152Z,0.70
2023-03-14T10:40:42.514Z,0.90
2023-03-14T10:43:22.985Z,0.95
2023-03-14T10:45:59.869Z,0.40
2023-03-14T10:48:38.403Z,0.88
2023-03-14T10:51:25.214Z,0.82
2023-03-14T10:54:19.983Z,0.77
2023-03-14T10:57:01.660Z,0.38
2023-03-14T10:59:42.270Z,0.85
2023-03-14T11:02:32.786Z,0.80
2023-03-14T11:05:32.854Z,1.00
2023-03-14T11:08:45.569Z,0.80
2023-03-14T11:11:27.953Z,0.80
2023-03-14T11:14:03.590Z,0.50
2023-03-14T11:17:01.225Z,1.00
2023-03-14T11:19:47.337Z,0.70
2023-03-14T11:22:32.441Z,1.50
2023-03-14T11:25:22.617Z,1.08
2023-03-14T11:28:30.799Z,0.80
2023-03-14T11:31:06.266Z,0.88
2023-03-14T11:34:01.926Z,0.68
2023-03-14T11:36:42.869Z,1.00
2023-03-14T11:39:21.180Z,1.63
2023-03-14T11:41:59.334Z,0.93
2023-03-14T11:44:39.165Z,1.10
2023-03-14T11:47:30.704Z,0.80
2023-03-14T11:50:16.262Z,0.50
2023-03-14T11:52:59.824Z,1.02
2023-03-14T11:55:39.338Z,1.40
2023-03-14T11:58:21.283Z,0.52
2023-03-14T12:00:57.597Z,1.02
2023-03-14T12:03:45.504Z,0.90
2023-03-14T12:06:26.851Z,1.17
2023-03-14T12:09:02.753Z,1.75
2023-03-14T12:12:03.502Z,0.88
2023-03-14T12:14:45.437Z,1.35
2023-03-14T12:17:24.661Z,1.63
2023-03-14T12:20:15.504Z,1.27
2023-03-14T12:22:55.204Z,0.95
2023-03-14T12:25:32.770Z,1.30
2023-03-14T12:28:20.167Z,1.50
2023-03-14T12:30:52.883Z,1.30
2023-03-14T12:33:31.518Z,1.60
2023-03-14T12:36:12.088Z,0.85
2023-03-14T12:38:56.641Z,1.85
2023-03-14T12:41:45.336Z,1.58
2023-03-14T12:44:47.921Z,1.30
2023-03-14T12:47:20.502Z,0.82
2023-03-14T12:49:58.365Z,1.80
2023-03-14T12:53:13.487Z,1.30
2023-03-14T12:56:18.640Z,1.52
2023-03-14T12:59:23.460Z,1.27
2023-03-14T13:02:03.336Z,1.83
2023-03-14T13:04:47.686Z,1.65
2023-03-14T13:07:40.306Z,1.33
2023-03-14T13:10:12.724Z,1.00
2023-03-14T13:13:04.001Z,0.70
2023-03-14T13:15:42.720Z,0.77
2023-03-14T13:18:20.469Z,1.40
2023-03-14T13:20:57.793Z,1.08
2023-03-14T13:23:34.448Z,1.17
2023-03-14T13:26:16.015Z,1.35
2023-03-14T13:28:48.564Z,0.95
2023-03-14T13:31:27.390Z,1.25
2023-03-14T13:34:11.077Z,0.60
2023-03-14T13:36:43.762Z,0.43
2023-03-14T13:39:29.980Z,0.73
2023-03-14T13:42:03.374Z,0.93
2023-03-14T13:44:40.691Z,0.82
2023-03-14T13:47:20.930Z,0.90
2023-03-14T13:49:54.895Z,0.82
2023-03-14T13:52:36.346Z,0.88
2023-03-14T13:55:19.695Z,1.08
2023-03-14T13:57:58.222Z,0.80
2023-03-14T14:00:30.864Z,1.30
2023-03-14T14:03:03.863Z,1.00
2023-03-14T14:05:38.527Z,1.70
2023-03-14T14:08:14.008Z,1.38
2023-03-14T14:10:50.178Z,0.88
2023-03-14T14:16:03.130Z,0.80
2023-03-14T14:18:36.898Z,1.15
2023-03-14T14:21:11.484Z,1.20
2023-03-14T14:23:44.535Z,1.00
2023-03-14T14:26:21.241Z,0.73
2023-03-14T14:29:06.403Z,0.60
2023-03-14T14:31:38.997Z,0.80
2023-03-14T14:34:20.884Z,1.05
2023-03-14T14:36:53.577Z,1.50
2023-03-14T14:39:29.956Z,0.90
2023-03-14T14:42:02.635Z,1.55
2023-03-14T14:44:37.359Z,0.80
2023-03-14T14:47:20.980Z,2.10
2023-03-14T14:49:59.502Z,1.00
2023-03-14T14:52:47.278Z,1.40
2023-03-14T14:55:21.255Z,0.70
2023-03-14T14:57:57.613Z,0.70
2023-03-14T15:00:31.266Z,1.27
2023-03-14T15:03:04.164Z,0.70
2023-03-14T15:05:37.970Z,0.40
2023-03-14T15:08:14.522Z,0.85
2023-03-14T15:10:47.072Z,0.90
2023-03-14T15:13:19.632Z,0.50
2023-03-14T15:15:57.100Z,0.93
2023-03-14T15:18:31.492Z,1.38
2023-03-14T15:21:04.525Z,0.70
2023-03-14T15:23:37.632Z,0.73
2023-03-14T15:26:17.153Z,1.00
2023-03-14T15:28:50.172Z,0.65
2023-03-14T15:31:22.895Z,1.08
2023-03-14T15:33:55.467Z,0.68
2023-03-14T15:36:35.003Z,0.70
2023-03-14T15:39:08.416Z,0.82
2023-03-14T15:41:41.077Z,0.77
2023-03-14T15:44:13.637Z,0.80
2023-03-14T15:46:46.202Z,0.57
2023-03-14T15:49:18.772Z,0.80
2023-03-14T15:51:51.323Z,1.00
2023-03-14T15:54:23.901Z,1.00
2023-03-14T15:56:57.323Z,1.20
2023-03-14T15:59:30.131Z,1.13
2023-03-14T16:02:02.686Z,1.17
2023-03-14T16:04:35.483Z,1.98
2023-03-14T16:07:08.148Z,0.80
2023-03-14T16:09:40.707Z,1.42
2023-03-14T16:12:13.248Z,1.15
2023-03-14T16:14:48.598Z,1.10
2023-03-14T16:17:21.365Z,1.00
2023-03-14T16:19:53.956Z,0.50
2023-03-14T16:22:27.264Z,1.00
2023-03-14T16:24:59.778Z,0.88
2023-03-14T16:27:33.023Z,1.23
2023-03-14T16:30:06.898Z,0.60
2023-03-14T16:32:39.536Z,0.73
2023-03-14T16:35:12.212Z,0.80
2023-03-14T16:37:44.719Z,0.85
2023-03-14T16:40:17.352Z,1.10
2023-03-14T16:43:14.563Z,0.70
2023-03-14T16:45:43.163Z,0.75
2023-03-14T16:48:15.721Z,1.23
2023-03-14T16:50:51.260Z,0.75
2023-03-14T16:53:25.123Z,0.60
2023-03-14T16:56:00.266Z,0.73
2023-03-14T16:58:32.912Z,1.45
2023-03-14T17:01:18.418Z,1.08
2023-03-14T17:03:52.067Z,0.98
2023-03-14T17:06:28.202Z,0.80
2023-03-14T17:09:03.497Z,1.25
2023-03-14T17:11:36.885Z,1.17
2023-03-14T17:14:09.384Z,0.70
2023-03-14T17:16:41.919Z,0.93
2023-03-14T17:19:14.469Z,1.00
2023-03-14T17:21:47.054Z,0.85
2023-03-14T17:24:19.944Z,0.90
2023-03-14T17:26:52.476Z,0.93
2023-03-14T17:29:25.024Z,0.77
2023-03-14T17:31:57.602Z,1.33
2023-03-14T17:34:30.178Z,1.10
2023-03-14T17:37:02.744Z,0.68
2023-03-14T17:39:35.669Z,1.10
2023-03-14T17:42:08.459Z,0.98
2023-03-14T17:44:41.806Z,0.90
2023-03-14T17:47:14.419Z,0.85
2023-03-14T17:49:46.958Z,0.77
2023-03-14T17:52:19.938Z,1.63
2023-03-14T17:54:52.409Z,1.40
2023-03-14T17:57:25.048Z,1.00
2023-03-14T17:59:57.611Z,1.13
2023-03-14T18:02:30.235Z,0.95
2023-03-14T18:05:03.677Z,0.93
2023-03-14T18:07:38.467Z,1.15
2023-03-14T18:10:11.993Z,1.15
2023-03-14T18:12:44.737Z,1.10
2023-03-14T18:15:17.316Z,1.23
2023-03-14T18:17:49.918Z,1.10
2023-03-14T18:20:22.524Z,1.52
2023-03-14T18:22:56.087Z,1.52
2023-03-14T18:25:29.048Z,1.65
2023-03-14T18:28:01.593Z,1.65
2023-03-14T18:30:34.076Z,1.33
2023-03-14T18:33:06.702Z,1.27
2023-03-14T18:35:39.365Z,1.17
2023-03-14T18:38:11.847Z,1.50
2023-03-14T18:40:44.411Z,1.00
2023-03-14T18:43:16.869Z,1.10
2023-03-14T18:45:49.372Z,1.00
2023-03-14T18:48:24.984Z,0.80
2023-03-14T18:50:59.042Z,0.88
2023-03-14T18:53:35.692Z,0.70
2023-03-14T18:56:08.798Z,1.38
2023-03-14T18:58:41.684Z,1.80
2023-03-14T19:01:17.471Z,1.02
2023-03-14T19:03:50.084Z,0.93
2023-03-14T19:06:24.865Z,0.70
2023-03-14T19:08:57.368Z,0.80
2023-03-14T19:11:30.001Z,0.82
2023-03-14T19:14:03.778Z,0.75
2023-03-14T19:16:36.515Z,0.90
2023-03-14T19:19:09.058Z,0.98
2023-03-14T19:21:41.688Z,0.98
2023-03-14T19:24:19.690Z,1.00
2023-03-14T19:26:54.235Z,0.75
2023-03-14T19:29:27.365Z,0.70
2023-03-14T19:31:59.978Z,0.95
2023-03-14T19:34:32.542Z,1.30
2023-03-14T19:37:05.074Z,0.70
2023-03-14T19:39:37.772Z,1.10
2023-03-14T19:42:10.317Z,1.13
2023-03-14T19:44:42.979Z,0.98
2023-03-14T19:47:15.464Z,0.52
2023-03-14T19:49:49.012Z,1.02
2023-03-14T19:52:21.804Z,0.73
2023-03-14T19:54:54.775Z,0.63
2023-03-14T19:57:27.284Z,1.10
2023-03-14T19:59:59.807Z,0.60
2023-03-14T20:02:32.572Z,0.90
2023-03-14T20:05:08.183Z,1.48
2023-03-14T20:07:41.835Z,1.30
2023-03-14T20:10:22.628Z,1.70
2023-03-14T20:13:09.099Z,1.73
2023-03-14T20:15:44.781Z,1.30
2023-03-14T20:18:17.362Z,1.67
2023-03-14T20:20:50.465Z,1.58
2023-03-14T20:23:23.117Z,1.38
2023-03-14T20:25:58.833Z,1.33
2023-03-14T20:28:32.052Z,1.20
2023-03-14T20:31:07.770Z,1.10
2023-03-14T20:33:42.517Z,1.48
2023-03-14T20:36:15.229Z,2.20
2023-03-14T20:38:47.754Z,1.00
2023-03-14T20:41:20.369Z,1.20
2023-03-14T20:43:53.079Z,1.50
2023-03-14T20:46:25.672Z,1.15
2023-03-14T20:48:58.250Z,0.93
2023-03-14T20:51:30.877Z,0.90
2023-03-14T20:54:03.737Z,1.20
2023-03-14T20:56:36.322Z,0.93
2023-03-14T20:59:09.098Z,0.88
2023-03-14T21:04:31.830Z,1.00
2023-03-14T21:07:04.369Z,1.55
2023-03-14T21:09:36.908Z,1.48
2023-03-14T21:12:09.381Z,1.40
2023-03-14T21:14:42.016Z,1.55
2023-03-14T21:17:14.529Z,1.20
2023-03-14T21:19:46.999Z,2.05
2023-03-14T21:22:19.470Z,1.33
2023-03-14T21:24:56.360Z,1.55
2023-03-14T21:27:28.844Z,1.70
2023-03-14T21:30:01.312Z,1.55
2023-03-14T21:32:34.168Z,1.70
2023-03-14T21:35:07.153Z,1.58
2023-03-14T21:37:39.736Z,2.08
2023-03-14T21:40:14.432Z,1.85
2023-03-14T21:42:47.121Z,1.60
2023-03-14T21:45:27.623Z,1.95
2023-03-14T21:48:02.332Z,1.90
2023-03-14T21:50:34.847Z,2.03
2023-03-14T21:53:07.426Z,1.50
2023-03-14T21:55:44.356Z,1.83
2023-03-14T21:58:17.127Z,2.00
2023-03-14T22:00:50.050Z,1.70
2023-03-14T22:03:25.310Z,1.58
2023-03-14T22:05:57.817Z,1.70
2023-03-14T22:08:30.670Z,2.10
2023-03-14T22:11:07.598Z,1.80
2023-03-14T22:13:40.382Z,1.75
2023-03-14T22:16:13.184Z,1.88
2023-03-14T22:18:46.191Z,1.75
2023-03-14T22:21:18.735Z,1.70
2023-03-14T22:23:51.205Z,1.77
2023-03-14T22:26:23.708Z,1.92
2023-03-14T22:28:56.181Z,1.55
2023-03-14T22:31:28.998Z,1.83
2023-03-14T22:34:01.544Z,1.90
2023-03-14T22:36:34.056Z,1.50
2023-03-14T22:39:06.818Z,1.52
2023-03-14T22:41:39.325Z,1.33
2023-03-14T22:44:11.795Z,1.10
2023-03-14T22:46:44.343Z,1.33
2023-03-14T22:49:17.955Z,1.05
2023-03-14T22:51:50.445Z,1.23
2023-03-14T22:54:22.992Z,1.52
2023-03-14T22:56:55.615Z,1.60
2023-03-14T22:59:28.189Z,1.92
2023-03-14T23:02:00.737Z,1.60
2023-03-14T23:04:33.363Z,1.48
2023-03-14T23:07:05.930Z,1.48
2023-03-14T23:09:39.680Z,0.60
2023-03-14T23:12:17.424Z,0.57
2023-03-14T23:14:49.898Z,0.70
2023-03-14T23:17:25.416Z,0.90
2023-03-14T23:19:59.288Z,0.40
2023-03-14T23:22:33.443Z,0.55
2023-03-14T23:25:06.848Z,0.50
2023-03-14T23:27:39.361Z,0.68
2023-03-14T23:30:17.108Z,0.40
2023-03-14T23:32:49.801Z,0.70
2023-03-14T23:35:22.384Z,0.45
2023-03-14T23:37:54.894Z,0.57
2023-03-14T23:40:27.416Z,0.70
2023-03-14T23:42:59.890Z,0.80
2023-03-14T23:45:32.356Z,0.68
2023-03-14T23:48:05.724Z,0.40
2023-03-14T23:50:38.255Z,0.55
2023-03-14T23:53:10.743Z,0.50
2023-03-14T23:55:43.399Z,0.60
2023-03-14T23:58:15.912Z,0.50
